createdAt,value
2023-04-04T00:01:06.430Z,100.00
2023-04-04T00:03:36.118Z,100.00
2023-04-04T00:06:04.406Z,100.00
2023-04-04T00:08:32.494Z,100.00
2023-04-04T00:11:01.596Z,100.00
2023-04-04T00:13:30.201Z,100.00
2023-04-04T00:15:58.938Z,100.00
2023-04-04T00:18:27.221Z,100.00
2023-04-04T00:20:56.768Z,100.00
2023-04-04T00:23:25.411Z,100.00
2023-04-04T00:25:54.173Z,100.00
2023-04-04T00:28:23.295Z,100.00
2023-04-04T00:30:51.422Z,100.00
2023-04-04T00:33:19.713Z,100.00
2023-04-04T00:35:49.854Z,100.00
2023-04-04T00:38:19.455Z,100.00
2023-04-04T00:40:50.740Z,100.00
2023-04-04T00:43:19.712Z,100.00
2023-04-04T00:45:48.367Z,100.00
2023-04-04T00:48:17.110Z,100.00
2023-04-04T00:50:45.577Z,100.00
2023-04-04T00:53:13.689Z,100.00
2023-04-04T00:55:44.079Z,100.00
2023-04-04T00:58:12.992Z,100.00
2023-04-04T01:00:41.600Z,100.00
2023-04-04T01:03:12.900Z,100.00
2023-04-04T01:05:41.974Z,100.00
2023-04-04T01:08:10.505Z,100.00
2023-04-04T01:10:40.880Z,100.00
2023-04-04T01:13:11.068Z,100.00
2023-04-04T01:15:39.640Z,100.00
2023-04-04T01:18:09.956Z,100.00
2023-04-04T01:20:45.649Z,100.00
2023-04-04T01:23:14.891Z,100.00
2023-04-04T01:25:44.912Z,100.00
2023-04-04T01:28:13.036Z,100.00
2023-04-04T01:30:43.799Z,100.00
2023-04-04T01:33:21.123Z,100.00
2023-04-04T01:36:03.432Z,100.00
2023-04-04T01:38:37.242Z,100.00
2023-04-04T01:41:12.283Z,100.00
2023-04-04T01:43:40.752Z,100.00
2023-04-04T01:46:08.968Z,100.00
2023-04-04T01:48:37.149Z,100.00
2023-04-04T01:51:06.239Z,100.00
2023-04-04T01:53:34.363Z,100.00
2023-04-04T01:56:02.792Z,100.00
2023-04-04T01:58:32.468Z,100.00
2023-04-04T02:01:00.829Z,100.00
2023-04-04T02:03:29.022Z,100.00
2023-04-04T02:05:57.203Z,100.00
2023-04-04T02:08:25.485Z,100.00
2023-04-04T02:10:53.700Z,100.00
2023-04-04T02:13:22.018Z,100.00
2023-04-04T02:15:52.524Z,100.00
2023-04-04T02:18:20.934Z,100.00
2023-04-04T02:20:56.049Z,100.00
2023-04-04T02:23:24.630Z,100.00
2023-04-04T02:25:53.245Z,100.00
2023-04-04T02:28:21.688Z,100.00
2023-04-04T02:30:51.451Z,100.00
2023-04-04T02:33:19.710Z,100.00
2023-04-04T02:35:47.908Z,100.00
2023-04-04T02:38:16.207Z,100.00
2023-04-04T02:40:46.786Z,100.00
2023-04-04T02:43:14.954Z,100.00
2023-04-04T02:45:43.416Z,100.00
2023-04-04T02:48:13.542Z,100.00
2023-04-04T02:50:41.906Z,100.00
2023-04-04T02:53:10.157Z,100.00
2023-04-04T02:55:38.332Z,100.00
2023-04-04T02:58:06.418Z,100.00
2023-04-04T03:00:34.703Z,100.00
2023-04-04T03:03:03.021Z,100.00
2023-04-04T03:05:33.094Z,100.00
2023-04-04T03:08:01.873Z,100.00
2023-04-04T03:10:31.207Z,100.00
2023-04-04T03:12:59.681Z,100.00
2023-04-04T03:15:28.053Z,100.00
2023-04-04T03:17:56.927Z,100.00
2023-04-04T03:20:25.047Z,100.00
2023-04-04T03:22:57.975Z,100.00
2023-04-04T03:25:26.658Z,100.00
2023-04-04T03:27:54.922Z,100.00
2023-04-04T03:30:23.400Z,100.00
2023-04-04T03:32:51.720Z,100.00
2023-04-04T03:35:19.978Z,100.00
2023-04-04T03:37:52.541Z,100.00
2023-04-04T03:40:22.101Z,100.00
2023-04-04T03:42:50.172Z,100.00
2023-04-04T03:45:19.107Z,100.00
2023-04-04T03:47:47.984Z,100.00
2023-04-04T03:50:16.358Z,100.00
2023-04-04T03:52:44.547Z,100.00
2023-04-04T03:55:13.330Z,100.00
2023-04-04T03:57:42.975Z,100.00
2023-04-04T04:00:12.493Z,100.00
2023-04-04T04:02:40.872Z,100.00
2023-04-04T04:05:10.388Z,100.00
2023-04-04T04:07:38.708Z,100.00
2023-04-04T04:10:07.760Z,100.00
2023-04-04T04:12:35.956Z,100.00
2023-04-04T04:15:06.260Z,100.00
2023-04-04T04:17:34.500Z,100.00
2023-04-04T04:20:02.601Z,100.00
2023-04-04T04:22:31.233Z,100.00
2023-04-04T04:24:59.661Z,100.00
2023-04-04T04:27:28.197Z,100.00
2023-04-04T04:29:56.887Z,100.00
2023-04-04T04:32:28.272Z,100.00
2023-04-04T04:34:56.740Z,100.00
2023-04-04T04:37:26.537Z,100.00
2023-04-04T04:39:54.793Z,100.00
2023-04-04T04:42:23.278Z,100.00
2023-04-04T04:44:51.618Z,100.00
2023-04-04T04:47:19.950Z,100.00
2023-04-04T04:49:49.929Z,100.00
2023-04-04T04:52:19.418Z,100.00
2023-04-04T04:54:48.230Z,100.00
2023-04-04T04:57:16.325Z,100.00
2023-04-04T04:59:44.592Z,100.00
2023-04-04T05:02:13.133Z,100.00
2023-04-04T05:04:41.464Z,100.00
2023-04-04T05:07:12.510Z,100.00
2023-04-04T05:09:40.588Z,100.00
2023-04-04T05:12:09.045Z,100.00
2023-04-04T05:14:37.718Z,100.00
2023-04-04T05:17:06.130Z,100.00
2023-04-04T05:19:34.647Z,100.00
2023-04-04T05:22:03.306Z,100.00
2023-04-04T05:24:33.141Z,100.00
2023-04-04T05:27:01.534Z,100.00
2023-04-04T05:29:29.823Z,100.00
2023-04-04T05:31:58.288Z,100.00
2023-04-04T05:34:26.842Z,100.00
2023-04-04T05:36:55.543Z,100.00
2023-04-04T05:39:23.876Z,100.00
2023-04-04T05:41:54.000Z,100.00
2023-04-04T05:44:22.348Z,100.00
2023-04-04T05:46:50.555Z,100.00
2023-04-04T05:49:18.918Z,100.00
2023-04-04T05:51:47.510Z,100.00
2023-04-04T05:54:15.755Z,100.00
2023-04-04T05:56:44.119Z,100.00
2023-04-04T05:59:14.001Z,100.00
2023-04-04T06:01:42.125Z,100.00
2023-04-04T06:04:10.579Z,100.00
2023-04-04T06:06:39.209Z,100.00
2023-04-04T06:09:08.853Z,100.00
2023-04-04T06:11:37.563Z,100.00
2023-04-04T06:14:06.075Z,100.00
2023-04-04T06:16:36.302Z,100.00
2023-04-04T06:19:04.490Z,100.00
2023-04-04T06:21:32.769Z,100.00
2023-04-04T06:24:01.062Z,100.00
2023-04-04T06:26:29.424Z,100.00
2023-04-04T06:28:57.929Z,100.00
2023-04-04T06:31:26.112Z,100.00
2023-04-04T06:33:55.767Z,100.00
2023-04-04T06:36:24.225Z,100.00
2023-04-04T06:38:52.317Z,100.00
2023-04-04T06:41:23.207Z,100.00
2023-04-04T06:43:51.396Z,100.00
2023-04-04T06:46:20.053Z,100.00
2023-04-04T06:48:48.858Z,100.00
2023-04-04T06:51:18.728Z,100.00
2023-04-04T06:53:47.138Z,100.00
2023-04-04T06:56:15.366Z,100.00
2023-04-04T06:58:43.493Z,100.00
2023-04-04T07:01:11.912Z,100.00
2023-04-04T07:03:40.501Z,100.00
2023-04-04T07:06:08.752Z,100.00
2023-04-04T07:08:38.375Z,100.00
2023-04-04T07:11:08.389Z,100.00
2023-04-04T07:13:36.730Z,100.00
2023-04-04T07:16:04.990Z,100.00
2023-04-04T07:18:33.265Z,100.00
2023-04-04T07:21:01.713Z,100.00
2023-04-04T07:23:29.961Z,100.00
2023-04-04T07:25:59.979Z,100.00
2023-04-04T07:28:28.358Z,100.00
2023-04-04T07:30:56.726Z,100.00
2023-04-04T07:33:25.010Z,100.00
2023-04-04T07:35:53.457Z,100.00
2023-04-04T07:38:22.051Z,100.00
2023-04-04T07:40:50.686Z,100.00
2023-04-04T07:43:20.403Z,100.00
2023-04-04T07:45:48.740Z,100.00
2023-04-04T07:48:17.267Z,100.00
2023-04-04T07:50:45.756Z,100.00
2023-04-04T07:53:13.909Z,100.00
2023-04-04T07:55:42.326Z,100.00
2023-04-04T07:58:11.020Z,100.00
2023-04-04T08:00:40.792Z,100.00
2023-04-04T08:03:09.374Z,100.00
2023-04-04T08:05:37.674Z,100.00
2023-04-04T08:08:05.843Z,100.00
2023-04-04T08:10:34.247Z,100.00
2023-04-04T08:13:02.447Z,100.00
2023-04-04T08:15:30.973Z,100.00
2023-04-04T08:18:00.835Z,100.00
2023-04-04T08:20:29.566Z,100.00
2023-04-04T08:22:58.675Z,100.00
2023-04-04T08:25:27.232Z,100.00
2023-04-04T08:27:55.740Z,100.00
2023-04-04T08:30:24.321Z,100.00
2023-04-04T08:32:52.930Z,100.00
2023-04-04T08:35:22.741Z,100.00
2023-04-04T08:37:51.118Z,100.00
2023-04-04T08:40:19.614Z,100.00
2023-04-04T08:42:49.698Z,100.00
2023-04-04T08:45:20.016Z,100.00
2023-04-04T08:47:51.575Z,100.00
2023-04-04T08:50:23.139Z,100.00
2023-04-04T08:52:51.656Z,100.00
2023-04-04T08:55:20.403Z,100.00
2023-04-04T08:57:49.561Z,100.00
2023-04-04T09:00:21.603Z,100.00
2023-04-04T09:02:58.146Z,100.00
2023-04-04T09:05:29.329Z,100.00
2023-04-04T09:08:00.856Z,100.00
2023-04-04T09:10:29.926Z,100.00
2023-04-04T09:13:12.398Z,100.00
2023-04-04T09:15:47.820Z,100.00
2023-04-04T09:18:16.542Z,100.00
2023-04-04T09:20:47.614Z,100.00
2023-04-04T09:23:17.517Z,100.00
2023-04-04T09:28:23.671Z,100.00
2023-04-04T09:30:53.282Z,100.00
2023-04-04T09:33:24.126Z,100.00
2023-04-04T09:35:59.479Z,100.00
2023-04-04T09:38:30.075Z,100.00
2023-04-04T09:40:58.848Z,100.00
2023-04-04T09:43:31.215Z,100.00
2023-04-04T09:46:01.919Z,100.00
2023-04-04T09:48:33.626Z,100.00
2023-04-04T09:51:05.980Z,100.00
2023-04-04T09:53:37.417Z,100.00
2023-04-04T09:56:07.154Z,100.00
2023-04-04T09:58:36.782Z,100.00
2023-04-04T10:01:11.055Z,100.00
2023-04-04T10:03:39.961Z,100.00
2023-04-04T10:06:11.362Z,100.00
2023-04-04T10:08:41.854Z,100.00
2023-04-04T10:11:12.375Z,100.00
2023-04-04T10:13:44.274Z,100.00
2023-04-04T10:16:12.988Z,100.00
2023-04-04T10:18:41.234Z,100.00
2023-04-04T10:23:44.117Z,100.00
2023-04-04T10:26:13.871Z,100.00
2023-04-04T10:28:43.939Z,100.00
2023-04-04T10:31:18.795Z,100.00
2023-04-04T10:33:53.828Z,100.00
2023-04-04T10:36:26.609Z,100.00
2023-04-04T10:39:06.403Z,100.00
2023-04-04T10:41:35.977Z,100.00
2023-04-04T10:44:19.913Z,100.00
2023-04-04T10:46:53.806Z,100.00
2023-04-04T10:49:23.927Z,100.00
2023-04-04T10:51:57.399Z,100.00
2023-04-04T10:54:29.281Z,100.00
2023-04-04T10:57:00.934Z,100.00
2023-04-04T10:59:29.390Z,100.00
2023-04-04T11:01:59.747Z,100.00
2023-04-04T11:04:35.420Z,100.00
2023-04-04T11:07:17.375Z,100.00
2023-04-04T11:09:54.371Z,100.00
2023-04-04T11:12:30.138Z,100.00
2023-04-04T11:15:08.240Z,100.00
2023-04-04T11:17:44.322Z,100.00
2023-04-04T11:20:16.323Z,100.00
2023-04-04T11:22:46.144Z,100.00
2023-04-04T11:25:33.533Z,98.55
2023-04-04T11:28:10.139Z,99.71
2023-04-04T11:30:48.541Z,97.44
2023-04-04T11:33:34.066Z,94.45
2023-04-04T11:36:08.622Z,92.83
2023-04-04T11:38:42.153Z,90.50
2023-04-04T11:41:10.847Z,88.93
2023-04-04T11:43:49.768Z,86.75
2023-04-04T11:46:19.870Z,86.91
2023-04-04T11:48:49.525Z,86.54
2023-04-04T11:51:19.871Z,85.14
2023-04-04T11:53:50.167Z,83.92
2023-04-04T11:56:20.875Z,84.55
2023-04-04T11:58:56.066Z,83.21
2023-04-04T12:01:30.536Z,81.14
2023-04-04T12:04:01.480Z,80.92
2023-04-04T12:06:33.200Z,80.34
2023-04-04T12:09:03.987Z,79.29
2023-04-04T12:11:33.877Z,79.54
2023-04-04T12:14:02.669Z,78.31
2023-04-04T12:16:31.952Z,78.06
2023-04-04T12:19:03.414Z,77.26
2023-04-04T12:21:33.321Z,76.83
2023-04-04T12:24:03.025Z,76.38
2023-04-04T12:26:33.020Z,75.99
2023-04-04T12:29:02.513Z,76.27
2023-04-04T12:31:32.146Z,75.58
2023-04-04T12:34:01.438Z,75.22
2023-04-04T12:36:31.613Z,75.09
2023-04-04T12:39:03.611Z,73.69
2023-04-04T12:41:32.194Z,73.82
2023-04-04T12:44:04.005Z,73.49
2023-04-04T12:46:38.986Z,73.07
2023-04-04T12:49:08.477Z,73.29
2023-04-04T12:51:38.126Z,72.33
2023-04-04T12:54:08.594Z,72.35
2023-04-04T12:56:37.406Z,73.29
2023-04-04T12:59:11.230Z,73.01
2023-04-04T13:01:40.430Z,73.83
2023-04-04T13:04:10.865Z,73.40
2023-04-04T13:06:39.859Z,73.16
2023-04-04T13:09:18.556Z,71.89
2023-04-04T13:11:58.850Z,72.77
2023-04-04T13:14:27.295Z,72.26
2023-04-04T13:17:08.414Z,69.94
2023-04-04T13:19:37.029Z,72.40
2023-04-04T13:22:05.401Z,71.60
2023-04-04T13:24:35.388Z,69.68
2023-04-04T13:27:03.895Z,71.39
2023-04-04T13:29:32.361Z,71.32
2023-04-04T13:32:01.906Z,70.91
2023-04-04T13:34:30.077Z,69.97
2023-04-04T13:36:58.348Z,70.58
2023-04-04T13:39:26.879Z,71.10
2023-04-04T13:41:57.575Z,71.01
2023-04-04T13:44:27.116Z,71.74
2023-04-04T13:46:55.858Z,71.82
2023-04-04T13:49:24.611Z,82.02
2023-04-04T13:51:52.764Z,98.53
2023-04-04T13:54:21.326Z,100.00
2023-04-04T13:56:49.633Z,100.00
2023-04-04T13:59:19.411Z,100.00
2023-04-04T14:01:47.805Z,100.00
2023-04-04T14:04:23.437Z,100.00
2023-04-04T14:06:52.542Z,100.00
2023-04-04T14:09:20.996Z,100.00
2023-04-04T14:11:49.176Z,100.00
2023-04-04T14:14:19.264Z,100.00
2023-04-04T14:16:47.546Z,100.00
2023-04-04T14:19:16.006Z,100.00
2023-04-04T14:21:44.546Z,100.00
2023-04-04T14:24:12.774Z,100.00
2023-04-04T14:26:40.988Z,100.00
2023-04-04T14:29:09.456Z,100.00
2023-04-04T14:31:39.559Z,100.00
2023-04-04T14:34:07.975Z,100.00
2023-04-04T14:36:36.925Z,100.00
2023-04-04T14:39:05.346Z,100.00
2023-04-04T14:41:33.586Z,100.00
2023-04-04T14:44:02.566Z,100.00
2023-04-04T14:46:31.001Z,100.00
2023-04-04T14:49:00.556Z,100.00
2023-04-04T14:51:28.972Z,100.00
2023-04-04T14:53:57.341Z,100.00
2023-04-04T14:56:26.455Z,100.00
2023-04-04T14:58:54.824Z,100.00
2023-04-04T15:01:28.373Z,100.00
2023-04-04T15:03:56.902Z,100.00
2023-04-04T15:06:27.267Z,100.00
2023-04-04T15:08:55.887Z,100.00
2023-04-04T15:11:28.493Z,100.00
2023-04-04T15:13:56.964Z,100.00
2023-04-04T15:16:25.512Z,100.00
2023-04-04T15:18:53.929Z,100.00
2023-04-04T15:21:22.078Z,100.00
2023-04-04T15:23:51.705Z,100.00
2023-04-04T15:26:20.005Z,100.00
2023-04-04T15:28:49.342Z,100.00
2023-04-04T15:31:18.016Z,100.00
2023-04-04T15:33:46.219Z,100.00
2023-04-04T15:36:16.927Z,100.00
2023-04-04T15:38:45.236Z,100.00
2023-04-04T15:41:14.807Z,100.00
2023-04-04T15:43:42.969Z,100.00
2023-04-04T15:46:11.267Z,100.00
2023-04-04T15:48:41.859Z,100.00
2023-04-04T15:51:10.334Z,100.00
2023-04-04T15:53:38.590Z,100.00
2023-04-04T15:56:07.349Z,100.00
2023-04-04T15:58:37.992Z,100.00
2023-04-04T16:01:07.631Z,100.00
2023-04-04T16:03:36.105Z,100.00
2023-04-04T16:06:06.587Z,100.00
2023-04-04T16:08:34.906Z,100.00
2023-04-04T16:11:03.553Z,100.00
2023-04-04T16:13:32.243Z,100.00
2023-04-04T16:16:02.233Z,100.00
2023-04-04T16:18:31.207Z,100.00
2023-04-04T16:20:59.420Z,94.35
2023-04-04T16:23:27.695Z,93.34
2023-04-04T16:25:56.382Z,89.59
2023-04-04T16:28:24.756Z,88.39
2023-04-04T16:30:53.197Z,87.62
2023-04-04T16:33:24.250Z,87.36
2023-04-04T16:35:52.361Z,86.96
2023-04-04T16:38:20.474Z,86.70
2023-04-04T16:40:49.032Z,86.04
2023-04-04T16:43:17.146Z,85.45
2023-04-04T16:45:45.514Z,84.70
2023-04-04T16:48:13.983Z,84.98
2023-04-04T16:50:43.521Z,85.68
2023-04-04T16:53:11.875Z,87.38
2023-04-04T16:55:40.213Z,88.08
2023-04-04T16:58:08.326Z,88.45
2023-04-04T17:00:37.556Z,88.58
2023-04-04T17:03:06.248Z,88.70
2023-04-04T17:05:34.473Z,88.71
2023-04-04T17:08:09.377Z,88.48
2023-04-04T17:10:40.596Z,89.21
2023-04-04T17:13:10.471Z,89.21
2023-04-04T17:15:38.598Z,89.95
2023-04-04T17:18:07.227Z,90.08
2023-04-04T17:20:38.232Z,89.77
2023-04-04T17:23:08.046Z,88.86
2023-04-04T17:25:36.659Z,88.21
2023-04-04T17:28:06.674Z,88.29
2023-04-04T17:30:36.736Z,87.44
2023-04-04T17:33:05.110Z,87.07
2023-04-04T17:35:34.906Z,86.98
2023-04-04T17:38:03.076Z,86.69
2023-04-04T17:40:32.838Z,87.01
2023-04-04T17:43:01.049Z,86.70
2023-04-04T17:45:29.851Z,86.74
2023-04-04T17:47:58.328Z,86.16
2023-04-04T17:50:28.312Z,86.21
2023-04-04T17:52:56.728Z,86.30
2023-04-04T17:55:32.487Z,86.36
2023-04-04T17:58:02.550Z,86.60
2023-04-04T18:00:35.138Z,87.05
2023-04-04T18:03:03.436Z,86.69
2023-04-04T18:05:32.450Z,86.38
2023-04-04T18:08:05.275Z,86.32
2023-04-04T18:10:33.982Z,87.04
2023-04-04T18:13:03.736Z,86.28
2023-04-04T18:15:32.206Z,86.30
2023-04-04T18:18:03.546Z,86.84
2023-04-04T18:20:34.987Z,86.36
2023-04-04T18:23:04.604Z,86.19
2023-04-04T18:25:33.732Z,86.04
2023-04-04T18:28:06.300Z,86.44
2023-04-04T18:30:37.330Z,86.45
2023-04-04T18:33:06.315Z,86.11
2023-04-04T18:35:34.643Z,86.33
2023-04-04T18:38:03.225Z,86.10
2023-04-04T18:40:32.500Z,86.62
2023-04-04T18:43:04.500Z,86.38
2023-04-04T18:45:40.306Z,86.69
2023-04-04T18:48:09.552Z,86.14
2023-04-04T18:50:38.032Z,86.36
2023-04-04T18:53:06.289Z,86.50
2023-04-04T18:55:34.726Z,86.00
2023-04-04T18:58:04.557Z,86.04
2023-04-04T19:00:32.836Z,85.96
2023-04-04T19:03:01.206Z,86.20
2023-04-04T19:05:34.302Z,86.28
2023-04-04T19:08:04.402Z,86.42
2023-04-04T19:10:33.260Z,86.02
2023-04-04T19:13:01.745Z,86.05
2023-04-04T19:15:32.976Z,86.41
2023-04-04T19:18:01.926Z,86.88
2023-04-04T19:20:30.081Z,86.76
2023-04-04T19:22:58.956Z,87.55
2023-04-04T19:25:27.335Z,88.01
2023-04-04T19:27:55.896Z,88.00
2023-04-04T19:30:50.397Z,87.68
2023-04-04T19:33:21.806Z,87.67
2023-04-04T19:35:59.492Z,87.88
2023-04-04T19:38:29.518Z,88.36
2023-04-04T19:40:59.666Z,88.26
2023-04-04T19:43:28.887Z,88.05
2023-04-04T19:46:00.344Z,88.25
2023-04-04T19:48:44.758Z,88.44
2023-04-04T19:51:44.364Z,89.02
2023-04-04T19:54:16.295Z,89.77
2023-04-04T19:56:50.634Z,90.70
2023-04-04T19:59:57.981Z,91.25
2023-04-04T20:02:57.929Z,91.08
2023-04-04T20:06:00.204Z,90.53
2023-04-04T20:08:38.668Z,90.42
2023-04-04T20:11:08.508Z,89.92
2023-04-04T20:13:37.509Z,89.57
2023-04-04T20:16:08.191Z,89.48
2023-04-04T20:18:44.106Z,90.12
2023-04-04T20:21:14.266Z,91.10
2023-04-04T20:23:46.361Z,91.55
2023-04-04T20:26:35.399Z,92.00
2023-04-04T20:29:06.898Z,92.58
2023-04-04T20:31:36.614Z,93.65
2023-04-04T20:34:07.851Z,94.24
2023-04-04T20:36:42.568Z,94.44
2023-04-04T20:39:41.398Z,94.94
2023-04-04T20:42:19.744Z,94.57
2023-04-04T20:44:48.357Z,95.18
2023-04-04T20:47:43.571Z,94.97
2023-04-04T20:50:45.805Z,94.85
2023-04-04T20:53:20.363Z,94.78
2023-04-04T20:55:50.652Z,94.63
2023-04-04T20:58:28.154Z,95.01
2023-04-04T21:00:58.253Z,94.10
2023-04-04T21:03:32.495Z,94.97
2023-04-04T21:06:04.765Z,94.40
2023-04-04T21:08:51.095Z,94.13
2023-04-04T21:11:25.465Z,94.08
2023-04-04T21:13:53.604Z,93.89
2023-04-04T21:16:26.881Z,93.89
2023-04-04T21:18:59.413Z,93.88
2023-04-04T21:21:30.094Z,94.28
2023-04-04T21:24:01.105Z,94.78
2023-04-04T21:26:32.321Z,94.86
2023-04-04T21:29:02.199Z,96.14
2023-04-04T21:31:36.381Z,96.51
2023-04-04T21:34:13.746Z,97.87
2023-04-04T21:36:43.567Z,98.71
2023-04-04T21:39:13.972Z,99.25
2023-04-04T21:41:44.211Z,99.60
2023-04-04T21:44:13.848Z,99.86
2023-04-04T21:46:43.188Z,99.98
2023-04-04T21:49:12.512Z,100.00
2023-04-04T21:51:42.461Z,99.17
2023-04-04T21:54:10.687Z,99.46
2023-04-04T21:56:39.243Z,99.88
2023-04-04T21:59:09.187Z,100.00
2023-04-04T22:01:38.134Z,99.55
2023-04-04T22:04:06.822Z,99.88
2023-04-04T22:06:35.143Z,99.72
2023-04-04T22:09:06.757Z,99.18
2023-04-04T22:11:38.995Z,98.99
2023-04-04T22:14:07.849Z,98.27
2023-04-04T22:16:39.658Z,98.51
2023-04-04T22:19:11.468Z,98.45
2023-04-04T22:21:48.008Z,97.63
2023-04-04T22:24:19.005Z,98.45
2023-04-04T22:26:47.514Z,98.88
2023-04-04T22:29:17.390Z,98.27
2023-04-04T22:31:46.186Z,98.88
2023-04-04T22:34:15.400Z,98.23
2023-04-04T22:36:44.292Z,98.54
2023-04-04T22:39:16.308Z,99.14
2023-04-04T22:41:46.939Z,99.37
2023-04-04T22:44:15.296Z,98.63
2023-04-04T22:46:43.591Z,98.58
2023-04-04T22:49:13.649Z,99.09
2023-04-04T22:51:45.990Z,99.31
2023-04-04T22:54:16.572Z,100.00
2023-04-04T22:56:46.700Z,100.00
2023-04-04T22:59:15.524Z,100.00
2023-04-04T23:01:43.715Z,100.00
2023-04-04T23:04:12.185Z,100.00
2023-04-04T23:06:40.511Z,99.97
2023-04-04T23:09:09.041Z,99.74
2023-04-04T23:11:38.287Z,99.71
2023-04-04T23:14:09.632Z,99.92
2023-04-04T23:16:38.639Z,99.20
2023-04-04T23:19:09.104Z,98.94
2023-04-04T23:21:38.179Z,98.91
2023-04-04T23:24:07.181Z,99.52
2023-04-04T23:26:35.535Z,99.24
2023-04-04T23:29:04.264Z,99.68
2023-04-04T23:31:33.834Z,99.95
2023-04-04T23:34:02.156Z,100.00
2023-04-04T23:36:31.173Z,100.00
2023-04-04T23:38:59.447Z,100.00
2023-04-04T23:41:28.424Z,100.00
2023-04-04T23:43:56.754Z,100.00
2023-04-04T23:46:25.339Z,100.00
2023-04-04T23:48:55.500Z,100.00
2023-04-04T23:51:25.735Z,100.00
2023-04-04T23:53:54.039Z,100.00
2023-04-04T23:56:22.756Z,100.00
2023-04-04T23:58:51.956Z,100.00
